Time;durP1;ratioP1;P1;durP2;ratioP2;P2;SDS_P1;SDS_P2;PMS_P1;PMS_P2;Temp;Humidity;BMP_temperature;BMP_pressure;BME280_temperature;BME280_humidity;BME280_pressure;Samples;Min_cycle;Max_cycle;Signal;HPM_P1;HPM_P2
2023/12/06 00:00:16;;;;;;;9.52;3.92;;;5.50;99.90;;;;;;4987568;28;20096;-68
2023/12/06 00:02:44;;;;;;;16.70;6.13;;;5.50;99.90;;;;;;5001965;28;20048;-66
2023/12/06 00:05:10;;;;;;;9.75;4.45;;;5.60;99.90;;;;;;5000309;28;20108;-69
2023/12/06 00:07:38;;;;;;;13.45;4.53;;;5.60;99.90;;;;;;5008673;28;20046;-68
2023/12/06 00:10:05;;;;;;;9.15;4.47;;;5.70;99.90;;;;;;4988096;28;20113;-68
2023/12/06 00:12:32;;;;;;;11.43;3.70;;;5.60;99.90;;;;;;4998412;28;20050;-67
2023/12/06 00:14:59;;;;;;;9.60;3.83;;;5.60;99.90;;;;;;4996838;28;20058;-68
2023/12/06 00:17:26;;;;;;;15.82;4.88;;;5.60;99.90;;;;;;5007126;28;20068;-66
2023/12/06 00:19:52;;;;;;;9.15;3.53;;;5.60;99.90;;;;;;4996460;28;20685;-66
2023/12/06 00:22:19;;;;;;;8.75;3.97;;;5.60;99.90;;;;;;5002438;28;20610;-66
2023/12/06 00:24:46;;;;;;;8.45;3.58;;;5.50;99.90;;;;;;5004009;28;20143;-66
2023/12/06 00:27:13;;;;;;;8.60;4.13;;;5.50;99.90;;;;;;5008595;28;20061;-65
2023/12/06 00:29:41;;;;;;;12.45;4.25;;;5.50;99.90;;;;;;5008798;28;20049;-66
2023/12/06 00:32:07;;;;;;;8.98;3.80;;;5.50;99.90;;;;;;5007213;28;20046;-66
2023/12/06 00:34:34;;;;;;;13.50;4.03;;;5.50;99.90;;;;;;5008000;28;20045;-66
2023/12/06 00:37:01;;;;;;;14.63;5.43;;;5.60;99.90;;;;;;5002140;28;20085;-66
2023/12/06 00:39:28;;;;;;;11.75;3.83;;;5.60;99.90;;;;;;5007379;28;20061;-66
2023/12/06 00:41:55;;;;;;;7.57;3.40;;;5.50;99.90;;;;;;5006686;28;20062;-67
2023/12/06 00:44:22;;;;;;;13.25;4.03;;;5.60;99.90;;;;;;5007455;28;20107;-67
2023/12/06 00:46:49;;;;;;;15.52;3.72;;;5.60;99.90;;;;;;5008482;28;20137;-66
2023/12/06 00:49:18;;;;;;;7.22;3.78;;;5.60;99.90;;;;;;5009833;28;20061;-67
2023/12/06 00:51:45;;;;;;;14.50;4.05;;;5.60;99.90;;;;;;5008895;28;20052;-67
2023/12/06 00:54:12;;;;;;;8.98;3.85;;;5.60;99.90;;;;;;5007835;28;20146;-67
2023/12/06 00:56:39;;;;;;;9.48;5.93;;;5.60;99.90;;;;;;5009594;28;20094;-67
2023/12/06 00:59:05;;;;;;;17.70;3.90;;;5.60;99.90;;;;;;5009530;28;20088;-67
2023/12/06 01:01:32;;;;;;;10.77;4.10;;;5.60;99.90;;;;;;5009391;28;20049;-66
2023/12/06 01:03:59;;;;;;;8.30;3.78;;;5.60;99.90;;;;;;5009099;28;20088;-67
2023/12/06 01:06:26;;;;;;;9.95;3.45;;;5.60;99.90;;;;;;5009381;28;20046;-67
2023/12/06 01:08:53;;;;;;;7.55;3.20;;;5.50;99.90;;;;;;5008803;28;20042;-66
2023/12/06 01:11:20;;;;;;;10.32;4.07;;;5.50;99.90;;;;;;5009413;28;20421;-66
2023/12/06 01:13:47;;;;;;;8.27;3.70;;;5.50;99.90;;;;;;5008002;28;20073;-66
2023/12/06 01:16:14;;;;;;;10.55;3.95;;;5.40;99.90;;;;;;5008167;28;20116;-67
2023/12/06 01:18:40;;;;;;;13.13;3.38;;;5.50;99.90;;;;;;5006748;28;20133;-66
2023/12/06 01:21:07;;;;;;;8.88;3.25;;;5.40;99.90;;;;;;5008534;28;20140;-66
2023/12/06 01:23:34;;;;;;;9.68;3.05;;;5.40;99.90;;;;;;5004714;28;20042;-66
2023/12/06 01:26:02;;;;;;;10.35;3.40;;;5.50;99.90;;;;;;5007594;28;20054;-67
2023/12/06 01:28:29;;;;;;;9.77;4.15;;;5.40;99.90;;;;;;5007323;28;20067;-66
2023/12/06 01:30:55;;;;;;;4.95;3.17;;;5.50;99.90;;;;;;5007664;28;20046;-66
2023/12/06 01:33:22;;;;;;;16.38;3.28;;;5.50;99.90;;;;;;5007025;28;20076;-68
2023/12/06 01:35:49;;;;;;;15.90;5.80;;;5.50;99.90;;;;;;4994329;28;20052;-67
2023/12/06 01:38:17;;;;;;;6.13;3.53;;;5.50;99.90;;;;;;4330052;28;10001531;-66
2023/12/06 01:40:44;;;;;;;11.05;4.63;;;5.50;99.90;;;;;;5004029;28;20261;-66
2023/12/06 01:46:26;;;;;;;;;;;5.60;99.90;;;;;;4630335;23;20514;-66
2023/12/06 01:48:53;;;;;;;11.02;3.17;;;5.50;99.90;;;;;;4943226;29;19995;-64
2023/12/06 01:51:20;;;;;;;8.32;3.00;;;5.60;99.90;;;;;;4933432;29;20505;-64
2023/12/06 01:53:47;;;;;;;8.88;3.90;;;5.60;99.90;;;;;;4931264;29;20083;-64
2023/12/06 01:56:14;;;;;;;9.82;4.07;;;5.60;99.90;;;;;;4901420;29;20055;-65
2023/12/06 01:58:41;;;;;;;10.35;3.17;;;5.60;99.90;;;;;;4917553;29;20051;-65
2023/12/06 02:01:08;;;;;;;10.57;2.88;;;5.50;99.90;;;;;;4950341;29;20058;-65
2023/12/06 02:03:35;;;;;;;10.18;3.47;;;5.50;99.90;;;;;;4931447;29;20051;-65
2023/12/06 02:06:03;;;;;;;9.23;2.67;;;5.50;99.90;;;;;;4949183;29;20050;-66
2023/12/06 02:08:34;;;;;;;8.68;3.72;;;5.50;99.90;;;;;;4933173;29;20074;-66
2023/12/06 02:11:01;;;;;;;9.13;4.03;;;5.50;99.90;;;;;;4933331;29;20051;-65
2023/12/06 02:13:28;;;;;;;14.30;3.08;;;5.50;99.90;;;;;;4949822;29;20055;-65
2023/12/06 02:15:55;;;;;;;9.38;2.85;;;5.50;99.90;;;;;;4951602;29;20079;-65
2023/12/06 02:18:22;;;;;;;7.50;3.65;;;5.50;99.90;;;;;;4952990;29;20111;-66
2023/12/06 02:20:51;;;;;;;7.95;3.15;;;5.60;99.90;;;;;;4928316;29;20078;-65
2023/12/06 02:23:18;;;;;;;10.40;2.97;;;5.60;99.90;;;;;;4932716;29;20047;-65
2023/12/06 02:25:45;;;;;;;11.70;4.13;;;5.60;99.90;;;;;;4932013;29;20498;-66
2023/12/06 02:28:12;;;;;;;8.77;2.70;;;5.60;99.90;;;;;;4916186;29;20063;-65
2023/12/06 02:30:39;;;;;;;17.70;5.40;;;5.60;99.90;;;;;;4931330;29;20054;-66
2023/12/06 02:33:06;;;;;;;14.45;3.40;;;5.60;99.90;;;;;;4946799;29;20050;-65
2023/12/06 02:35:46;;;;;;;10.93;3.88;;;5.60;99.90;;;;;;4949357;29;20095;-65
2023/12/06 02:38:13;;;;;;;9.73;3.22;;;5.60;99.90;;;;;;4933121;29;20585;-65
2023/12/06 02:40:40;;;;;;;12.10;3.03;;;5.60;99.90;;;;;;4932719;29;20063;-65
2023/12/06 02:43:07;;;;;;;9.68;4.03;;;5.50;99.90;;;;;;4932125;29;20055;-66
2023/12/06 02:45:34;;;;;;;5.45;2.45;;;5.50;99.90;;;;;;4930733;29;20089;-65
2023/12/06 02:48:03;;;;;;;8.10;2.72;;;5.50;99.90;;;;;;4947670;29;20130;-65
2023/12/06 02:50:30;;;;;;;7.50;2.42;;;5.50;99.90;;;;;;4948566;29;20599;-65
2023/12/06 02:52:57;;;;;;;7.25;3.25;;;5.50;99.90;;;;;;4948793;29;20051;-65
2023/12/06 02:55:24;;;;;;;6.47;2.28;;;5.50;99.90;;;;;;4932367;29;20130;-64
2023/12/06 02:57:51;;;;;;;8.25;3.00;;;5.40;99.90;;;;;;4932763;29;20211;-63
2023/12/06 03:00:18;;;;;;;11.13;2.95;;;5.50;99.90;;;;;;4949158;29;20051;-65
2023/12/06 03:02:45;;;;;;;9.93;2.80;;;5.50;99.90;;;;;;4949148;29;20051;-64
2023/12/06 03:05:12;;;;;;;13.15;3.30;;;5.40;99.90;;;;;;4947868;29;20517;-63
2023/12/06 03:07:39;;;;;;;5.45;2.55;;;5.30;99.90;;;;;;4947770;29;20051;-65
2023/12/06 03:10:06;;;;;;;13.25;4.05;;;5.30;99.90;;;;;;4950635;29;20063;-64
2023/12/06 03:12:33;;;;;;;6.80;2.83;;;5.30;99.90;;;;;;4946317;29;20106;-64
2023/12/06 03:15:00;;;;;;;14.35;3.58;;;5.30;99.90;;;;;;4950206;29;20051;-64
2023/12/06 03:17:27;;;;;;;13.40;6.68;;;5.20;99.90;;;;;;4951203;29;20102;-65
2023/12/06 03:19:54;;;;;;;33.20;5.60;;;5.20;99.90;;;;;;4950355;29;20098;-64
2023/12/06 03:22:21;;;;;;;16.42;4.28;;;5.20;99.90;;;;;;4932202;29;20462;-64
2023/12/06 03:24:48;;;;;;;13.80;4.00;;;5.20;99.90;;;;;;4947425;29;20122;-64
2023/12/06 03:27:15;;;;;;;11.60;3.67;;;5.10;99.90;;;;;;4948599;29;20114;-64
2023/12/06 03:29:42;;;;;;;9.57;3.83;;;5.10;99.90;;;;;;4949451;29;20063;-64
2023/12/06 03:32:09;;;;;;;12.35;3.35;;;5.10;99.90;;;;;;4943891;29;20051;-65
2023/12/06 03:34:35;;;;;;;8.68;3.58;;;5.00;99.90;;;;;;4947274;29;20047;-66
2023/12/06 03:37:03;;;;;;;7.57;3.05;;;5.00;99.90;;;;;;4947213;29;20054;-66
2023/12/06 03:39:32;;;;;;;7.10;3.20;;;5.00;99.90;;;;;;4604280;28;10000560;-68
2023/12/06 03:41:59;;;;;;;14.15;3.40;;;5.00;99.90;;;;;;4947687;28;20051;-66
2023/12/06 03:44:26;;;;;;;6.72;2.90;;;4.90;99.90;;;;;;4949596;29;20071;-65
2023/12/06 03:46:52;;;;;;;8.80;3.35;;;4.80;99.90;;;;;;4950159;29;20067;-65
2023/12/06 03:49:19;;;;;;;12.13;4.05;;;4.70;99.90;;;;;;4935292;29;20110;-65
2023/12/06 03:51:46;;;;;;;6.60;2.50;;;4.70;99.90;;;;;;4952965;29;20541;-65
2023/12/06 03:54:13;;;;;;;10.18;3.30;;;4.60;99.90;;;;;;4951754;29;20549;-65
2023/12/06 03:56:41;;;;;;;11.30;3.35;;;4.50;99.90;;;;;;4951587;29;20138;-66
2023/12/06 03:59:07;;;;;;;10.98;3.33;;;4.50;99.90;;;;;;4952014;29;20055;-65
2023/12/06 04:01:35;;;;;;;7.13;3.20;;;4.40;99.90;;;;;;4952736;29;20055;-65
2023/12/06 04:04:02;;;;;;;13.10;3.85;;;4.30;99.90;;;;;;4952881;29;20039;-65
2023/12/06 04:06:29;;;;;;;5.70;2.83;;;4.20;99.90;;;;;;4932247;29;20104;-65
2023/12/06 04:08:56;;;;;;;7.50;3.10;;;4.20;99.90;;;;;;4953386;29;20050;-64
2023/12/06 04:11:23;;;;;;;10.55;3.22;;;4.10;99.90;;;;;;4955711;29;20490;-65
2023/12/06 04:13:51;;;;;;;8.57;2.88;;;4.10;99.90;;;;;;4954687;29;20051;-64
2023/12/06 04:16:18;;;;;;;11.90;3.58;;;4.00;99.90;;;;;;4952202;29;20055;-64
2023/12/06 04:18:45;;;;;;;5.43;3.38;;;4.00;99.90;;;;;;4952027;29;20086;-64
2023/12/06 04:21:12;;;;;;;10.45;3.28;;;4.00;99.90;;;;;;4952371;29;20091;-64
2023/12/06 04:23:39;;;;;;;9.13;3.63;;;3.90;99.90;;;;;;4951935;29;20102;-64
2023/12/06 04:26:05;;;;;;;8.73;3.10;;;3.90;99.90;;;;;;4951930;29;20133;-64
2023/12/06 04:28:32;;;;;;;13.15;3.75;;;3.80;99.90;;;;;;4951988;29;20043;-65
2023/12/06 04:30:59;;;;;;;11.02;3.28;;;3.80;99.90;;;;;;4950799;29;20054;-64
2023/12/06 04:33:26;;;;;;;9.77;3.78;;;3.80;99.90;;;;;;4951801;29;20043;-64
2023/12/06 04:35:53;;;;;;;5.63;3.67;;;3.80;99.90;;;;;;4950545;29;20051;-64
2023/12/06 04:38:20;;;;;;;11.27;3.75;;;3.80;99.90;;;;;;4951142;29;20058;-65
2023/12/06 04:40:47;;;;;;;10.23;2.95;;;3.70;99.90;;;;;;4951860;29;20040;-65
2023/12/06 04:43:15;;;;;;;12.07;4.43;;;3.80;99.90;;;;;;4951809;29;20493;-65
2023/12/06 04:45:43;;;;;;;10.32;5.18;;;3.70;99.90;;;;;;4931519;29;20103;-64
2023/12/06 04:48:09;;;;;;;9.23;3.55;;;3.70;99.90;;;;;;4935916;29;20055;-64
2023/12/06 04:50:36;;;;;;;15.02;3.53;;;3.70;99.90;;;;;;4937628;29;20047;-64
2023/12/06 04:53:03;;;;;;;9.70;3.22;;;3.60;99.90;;;;;;4952107;28;20495;-64
2023/12/06 04:55:30;;;;;;;6.82;3.58;;;3.60;99.90;;;;;;4951595;29;20047;-65
2023/12/06 04:57:57;;;;;;;12.07;3.33;;;3.50;99.90;;;;;;4951415;29;20047;-64
2023/12/06 05:00:26;;;;;;;10.80;4.65;;;3.40;99.90;;;;;;4951222;29;20108;-65
2023/12/06 05:02:53;;;;;;;11.40;4.55;;;3.30;99.90;;;;;;4951264;29;20139;-64
2023/12/06 05:05:20;;;;;;;8.82;3.28;;;3.30;99.90;;;;;;4948471;29;20082;-65
2023/12/06 05:07:47;;;;;;;10.90;4.13;;;3.20;99.90;;;;;;4930313;29;20462;-64
2023/12/06 05:10:14;;;;;;;12.30;3.40;;;3.20;99.90;;;;;;4951202;29;20055;-65
2023/12/06 05:12:41;;;;;;;16.05;4.65;;;3.20;99.90;;;;;;4949955;29;20849;-64
2023/12/06 05:15:09;;;;;;;13.00;5.40;;;3.20;99.90;;;;;;4950604;29;20086;-64
2023/12/06 05:17:36;;;;;;;9.70;3.95;;;3.10;99.90;;;;;;4950075;29;20486;-64
2023/12/06 05:20:03;;;;;;;8.82;3.20;;;3.10;99.90;;;;;;4951474;29;20047;-65
2023/12/06 05:22:30;;;;;;;10.27;4.45;;;3.10;99.90;;;;;;4950439;29;20047;-65
2023/12/06 05:24:57;;;;;;;8.65;3.63;;;3.10;99.90;;;;;;4948089;29;20051;-65
2023/12/06 05:27:24;;;;;;;10.27;4.15;;;3.10;99.90;;;;;;4949168;29;20498;-64
2023/12/06 05:29:51;;;;;;;7.43;3.80;;;3.00;99.90;;;;;;4949750;29;20055;-64
2023/12/06 05:32:20;;;;;;;10.15;3.83;;;3.00;99.90;;;;;;4948775;29;20134;-65
2023/12/06 05:34:47;;;;;;;16.60;4.80;;;2.90;99.90;;;;;;4949259;29;20466;-65
2023/12/06 05:37:14;;;;;;;11.40;3.53;;;2.90;99.90;;;;;;4948139;29;20565;-65
2023/12/06 05:39:42;;;;;;;7.75;3.40;;;2.90;99.90;;;;;;4949797;29;20486;-64
2023/12/06 05:42:08;;;;;;;10.40;4.38;;;2.90;99.90;;;;;;4949011;29;20074;-64
2023/12/06 05:44:35;;;;;;;13.15;4.13;;;2.90;99.90;;;;;;4949703;29;20434;-64
2023/12/06 05:47:04;;;;;;;15.50;5.65;;;2.80;99.90;;;;;;4929893;29;20055;-64
2023/12/06 05:49:31;;;;;;;10.35;4.68;;;2.80;99.90;;;;;;4948129;29;20098;-64
2023/12/06 05:51:58;;;;;;;10.88;4.75;;;2.80;99.90;;;;;;4947425;29;20051;-64
2023/12/06 05:54:25;;;;;;;10.55;4.05;;;2.70;99.90;;;;;;4949522;29;20470;-64
2023/12/06 05:56:52;;;;;;;8.30;3.80;;;2.70;99.90;;;;;;4936360;29;20070;-64
2023/12/06 05:59:19;;;;;;;6.50;3.92;;;2.70;99.90;;;;;;4948026;29;20495;-63
2023/12/06 06:01:46;;;;;;;12.85;4.55;;;2.70;99.90;;;;;;4949070;29;20066;-64
2023/12/06 06:04:13;;;;;;;14.77;4.38;;;2.80;99.90;;;;;;4948626;28;20047;-64
2023/12/06 06:06:40;;;;;;;8.38;4.20;;;2.60;99.90;;;;;;4949511;29;20084;-63
2023/12/06 06:09:07;;;;;;;9.63;4.22;;;2.60;99.90;;;;;;4931480;29;20059;-64
2023/12/06 06:11:34;;;;;;;13.98;4.25;;;2.60;99.90;;;;;;4948488;29;20238;-64
2023/12/06 06:14:01;;;;;;;8.20;5.00;;;2.60;99.90;;;;;;4948324;29;20040;-64
2023/12/06 06:16:27;;;;;;;8.27;4.28;;;2.60;99.90;;;;;;4929481;29;20054;-65
2023/12/06 06:18:54;;;;;;;11.52;4.35;;;2.60;99.90;;;;;;4949155;29;20606;-64
2023/12/06 06:21:21;;;;;;;9.23;4.35;;;2.50;99.90;;;;;;4949292;29;20051;-64
2023/12/06 06:23:48;;;;;;;7.40;4.05;;;2.50;99.90;;;;;;4947004;29;20048;-64
2023/12/06 06:26:16;;;;;;;14.20;4.20;;;2.50;99.90;;;;;;4929923;28;20546;-64
2023/12/06 06:28:43;;;;;;;12.82;4.15;;;2.50;99.90;;;;;;4934854;28;20070;-64
2023/12/06 06:31:10;;;;;;;14.45;5.18;;;2.40;99.90;;;;;;4946412;29;20494;-64
2023/12/06 06:33:37;;;;;;;11.88;5.25;;;2.50;99.90;;;;;;4947245;29;20102;-65
2023/12/06 06:36:04;;;;;;;8.77;5.00;;;2.40;99.90;;;;;;4948717;29;20043;-65
2023/12/06 06:38:31;;;;;;;13.57;5.60;;;2.40;99.90;;;;;;4928383;29;20391;-65
2023/12/06 06:40:58;;;;;;;17.92;5.88;;;2.40;99.90;;;;;;4933284;29;20058;-65
2023/12/06 06:43:25;;;;;;;7.53;5.10;;;2.40;99.90;;;;;;4940100;29;20649;-65
2023/12/06 06:45:52;;;;;;;12.15;5.65;;;2.40;99.90;;;;;;4944268;29;20047;-65
2023/12/06 06:48:19;;;;;;;12.65;5.45;;;2.30;99.90;;;;;;4947390;29;20043;-65
2023/12/06 06:50:46;;;;;;;20.33;6.00;;;2.40;99.90;;;;;;4952845;29;20051;-65
2023/12/06 06:53:13;;;;;;;20.98;5.90;;;2.40;99.90;;;;;;4923743;29;20059;-65
2023/12/06 06:55:40;;;;;;;22.50;7.38;;;2.40;99.90;;;;;;4952690;29;20051;-65
2023/12/06 06:58:07;;;;;;;14.45;5.80;;;2.40;99.90;;;;;;4952747;29;20051;-66
2023/12/06 07:00:34;;;;;;;12.85;6.05;;;2.30;99.90;;;;;;4950875;29;20051;-65
2023/12/06 07:03:01;;;;;;;10.68;5.05;;;2.20;99.90;;;;;;4927993;29;20058;-67
2023/12/06 07:05:28;;;;;;;14.35;6.25;;;2.20;99.90;;;;;;4917276;29;20079;-65
2023/12/06 07:07:55;;;;;;;25.52;9.98;;;2.20;99.90;;;;;;4947396;29;20059;-65
2023/12/06 07:10:22;;;;;;;58.60;7.85;;;2.20;99.90;;;;;;4930400;29;20059;-65
2023/12/06 07:12:49;;;;;;;8.18;5.00;;;2.10;99.90;;;;;;4949966;29;20150;-66
2023/12/06 07:15:16;;;;;;;14.25;5.95;;;2.10;99.90;;;;;;4948473;28;20066;-66
2023/12/06 07:17:43;;;;;;;12.45;6.78;;;2.10;99.90;;;;;;4944317;29;20051;-65
2023/12/06 07:20:11;;;;;;;13.25;6.10;;;2.10;99.90;;;;;;4956775;29;20059;-65
2023/12/06 07:22:39;;;;;;;18.25;6.50;;;2.20;99.90;;;;;;4948841;29;20641;-66
2023/12/06 07:25:06;;;;;;;9.88;5.13;;;2.20;99.90;;;;;;4945193;29;20043;-65
2023/12/06 07:27:33;;;;;;;9.50;5.28;;;2.20;99.90;;;;;;4950498;29;20051;-65
2023/12/06 07:30:00;;;;;;;10.40;4.78;;;2.30;99.90;;;;;;4928746;29;20043;-65
2023/12/06 07:32:27;;;;;;;15.40;5.35;;;2.20;99.90;;;;;;4934606;29;20047;-66
2023/12/06 07:34:57;;;;;;;44.58;7.63;;;2.20;99.90;;;;;;4951270;29;20054;-63
2023/12/06 07:37:26;;;;;;;23.08;7.60;;;2.20;99.90;;;;;;4941156;29;20047;-63
2023/12/06 07:39:53;;;;;;;23.42;7.32;;;2.30;99.90;;;;;;4941412;29;20062;-63
2023/12/06 07:42:20;;;;;;;81.03;8.95;;;2.20;99.90;;;;;;4944694;29;20130;-63
2023/12/06 07:44:47;;;;;;;28.98;8.23;;;2.20;99.90;;;;;;4925955;29;20075;-62
2023/12/06 07:47:16;;;;;;;30.77;6.68;;;2.30;99.90;;;;;;4943118;29;20074;-62
2023/12/06 07:49:42;;;;;;;65.63;7.70;;;2.20;99.90;;;;;;4941453;29;20098;-62
2023/12/06 07:52:09;;;;;;;28.42;7.35;;;2.20;99.90;;;;;;4931680;29;20745;-62
2023/12/06 07:54:37;;;;;;;27.17;7.13;;;2.20;99.90;;;;;;4949258;29;20047;-63
2023/12/06 07:57:04;;;;;;;28.52;6.68;;;2.20;99.90;;;;;;4951104;29;20047;-62
2023/12/06 07:59:31;;;;;;;36.67;8.80;;;2.10;99.90;;;;;;4949257;29;20118;-62
2023/12/06 08:01:57;;;;;;;23.33;6.50;;;2.10;99.90;;;;;;4948164;29;20495;-63
2023/12/06 08:04:24;;;;;;;40.60;7.75;;;2.10;99.90;;;;;;4943472;29;20051;-62
2023/12/06 08:06:52;;;;;;;33.80;7.50;;;2.10;99.90;;;;;;4945414;29;20054;-63
2023/12/06 08:09:20;;;;;;;43.17;8.00;;;2.30;99.90;;;;;;4943983;29;20082;-63
2023/12/06 08:11:47;;;;;;;24.75;8.13;;;2.20;99.90;;;;;;4946016;29;20048;-62
2023/12/06 08:14:14;;;;;;;54.17;9.38;;;2.30;99.90;;;;;;4942064;28;20047;-63
2023/12/06 08:16:41;;;;;;;29.38;8.18;;;2.30;99.90;;;;;;4918915;29;20059;-63
2023/12/06 08:19:08;;;;;;;38.88;8.45;;;2.30;99.90;;;;;;4944551;29;20051;-63
2023/12/06 08:21:36;;;;;;;40.67;8.88;;;2.40;99.90;;;;;;4940893;29;20134;-63
2023/12/06 08:24:05;;;;;;;29.05;9.32;;;2.40;99.90;;;;;;4946749;29;20408;-63
2023/12/06 08:26:33;;;;;;;51.40;8.75;;;2.50;99.90;;;;;;4941585;29;20411;-63
2023/12/06 08:29:00;;;;;;;19.90;7.38;;;2.50;99.90;;;;;;4925973;29;20055;-63
2023/12/06 08:31:28;;;;;;;49.75;9.27;;;2.50;99.90;;;;;;4944467;28;20061;-63
2023/12/06 08:33:55;;;;;;;43.78;9.57;;;2.60;99.90;;;;;;4942116;29;20051;-63
2023/12/06 08:36:22;;;;;;;37.53;8.13;;;2.50;99.90;;;;;;4930483;29;20051;-63
2023/12/06 08:38:50;;;;;;;44.25;8.45;;;2.60;99.90;;;;;;4949243;29;20643;-63
2023/12/06 08:41:17;;;;;;;65.90;8.85;;;2.60;99.90;;;;;;4949424;29;20559;-63
2023/12/06 08:43:44;;;;;;;46.72;9.02;;;2.60;99.90;;;;;;4947907;29;20123;-63
2023/12/06 08:46:11;;;;;;;51.28;8.65;;;2.60;99.90;;;;;;4949021;29;20526;-63
2023/12/06 08:48:38;;;;;;;72.60;11.95;;;2.50;99.90;;;;;;4949930;29;20051;-63
2023/12/06 08:51:05;;;;;;;51.13;8.52;;;2.50;99.90;;;;;;4950448;29;20530;-66
2023/12/06 08:53:32;;;;;;;55.30;9.50;;;2.50;99.90;;;;;;4931723;29;20051;-64
2023/12/06 08:55:59;;;;;;;73.93;9.90;;;2.50;99.90;;;;;;4949797;29;20049;-62
2023/12/06 08:58:27;;;;;;;64.10;8.40;;;2.50;99.90;;;;;;4947092;29;20043;-62
2023/12/06 09:00:54;;;;;;;62.95;8.88;;;2.60;99.90;;;;;;4932815;29;20138;-62
2023/12/06 09:03:21;;;;;;;35.38;8.57;;;2.60;99.90;;;;;;4944492;29;20055;-63
2023/12/06 09:05:48;;;;;;;68.95;8.38;;;2.70;99.90;;;;;;4949591;29;20047;-62
2023/12/06 09:08:15;;;;;;;61.45;7.60;;;2.60;99.90;;;;;;4949219;29;20098;-62
2023/12/06 09:10:42;;;;;;;48.88;8.23;;;2.50;99.90;;;;;;4949114;29;20073;-61
2023/12/06 09:13:08;;;;;;;51.47;9.05;;;2.60;99.90;;;;;;4949804;29;20545;-62
2023/12/06 09:15:35;;;;;;;37.42;8.77;;;2.60;99.90;;;;;;4950698;29;20071;-62
2023/12/06 09:18:02;;;;;;;28.05;7.97;;;2.60;99.90;;;;;;4951006;29;20107;-61
2023/12/06 09:20:29;;;;;;;30.40;9.05;;;2.70;99.90;;;;;;4951021;29;20078;-61
2023/12/06 09:22:56;;;;;;;14.63;8.23;;;2.80;99.90;;;;;;4950870;29;20047;-63
2023/12/06 09:25:23;;;;;;;34.75;9.65;;;2.80;99.90;;;;;;4944509;28;20059;-62
2023/12/06 09:27:51;;;;;;;49.30;11.13;;;2.90;99.90;;;;;;4937687;28;20047;-62
2023/12/06 09:30:19;;;;;;;35.78;12.60;;;2.90;99.90;;;;;;4945955;28;20490;-62
2023/12/06 09:32:46;;;;;;;59.15;11.70;;;2.90;99.90;;;;;;4949759;29;20114;-62
2023/12/06 09:35:13;;;;;;;37.97;11.80;;;2.90;99.90;;;;;;4950526;29;20058;-61
2023/12/06 09:37:40;;;;;;;31.15;12.10;;;3.00;99.90;;;;;;4951092;29;20241;-62
2023/12/06 09:40:09;;;;;;;71.10;11.88;;;2.90;99.90;;;;;;4949398;28;20079;-63
2023/12/06 09:42:37;;;;;;;42.53;11.93;;;2.90;99.90;;;;;;4951229;29;20605;-63
2023/12/06 09:45:05;;;;;;;46.30;11.25;;;2.90;99.90;;;;;;4902914;29;20079;-63
2023/12/06 09:47:32;;;;;;;50.40;10.75;;;2.90;99.90;;;;;;4948872;29;20062;-62
2023/12/06 09:49:59;;;;;;;34.53;11.25;;;2.80;99.90;;;;;;4917695;29;20597;-63
2023/12/06 09:52:26;;;;;;;35.38;10.52;;;2.80;99.90;;;;;;4935570;29;20082;-61
2023/12/06 09:54:53;;;;;;;65.40;10.60;;;2.90;99.90;;;;;;4934635;29;20047;-62
2023/12/06 09:57:20;;;;;;;45.13;12.05;;;2.80;99.90;;;;;;4948264;29;20051;-62
2023/12/06 09:59:53;;;;;;;42.58;10.27;;;2.90;99.90;;;;;;5090130;27;20394;-61
2023/12/06 10:02:20;;;;;;;38.58;11.65;;;2.90;99.90;;;;;;5067270;28;20056;-62
2023/12/06 10:04:48;;;;;;;30.42;12.05;;;3.00;99.90;;;;;;5083554;28;20064;-63
2023/12/06 10:07:15;;;;;;;87.80;13.20;;;3.10;99.90;;;;;;5078698;28;20056;-63
2023/12/06 10:09:50;;;;;;;39.25;11.35;;;3.10;99.90;;;;;;5083704;28;20051;-63
2023/12/06 10:12:17;;;;;;;29.55;10.85;;;3.10;99.90;;;;;;5068267;28;20136;-63
2023/12/06 10:14:43;;;;;;;37.25;12.10;;;3.20;99.90;;;;;;5085812;28;20052;-62
2023/12/06 10:17:10;;;;;;;30.92;11.52;;;3.30;99.90;;;;;;5085246;28;20424;-62
2023/12/06 10:19:37;;;;;;;42.70;12.50;;;3.40;99.90;;;;;;5084635;28;20056;-62
2023/12/06 10:22:05;;;;;;;24.33;11.68;;;3.50;99.90;;;;;;5084498;28;20071;-62
2023/12/06 10:24:32;;;;;;;35.88;11.13;;;3.60;99.90;;;;;;5084499;28;20135;-62
2023/12/06 10:27:03;;;;;;;44.72;11.68;;;3.60;99.90;;;;;;5085103;28;20044;-62
2023/12/06 10:29:31;;;;;;;35.63;11.30;;;3.70;99.90;;;;;;5080766;28;20048;-62
2023/12/06 10:31:58;;;;;;;83.03;11.30;;;3.70;99.90;;;;;;5083554;28;20105;-62
2023/12/06 10:34:26;;;;;;;35.83;11.13;;;3.70;99.90;;;;;;5084441;28;20040;-62
2023/12/06 10:36:55;;;;;;;71.18;14.52;;;3.70;99.90;;;;;;5065393;28;20048;-62
2023/12/06 10:39:22;;;;;;;35.38;9.73;;;3.80;99.90;;;;;;5075099;28;20048;-62
2023/12/06 10:41:50;;;;;;;35.75;9.25;;;3.80;99.90;;;;;;5066960;28;20048;-63
2023/12/06 10:44:17;;;;;;;59.53;10.02;;;3.80;99.90;;;;;;5071634;28;20390;-63
2023/12/06 10:46:44;;;;;;;42.22;9.05;;;3.90;99.90;;;;;;5090041;28;20048;-63
2023/12/06 10:49:20;;;;;;;30.77;9.43;;;4.00;99.90;;;;;;5067614;28;20047;-62
2023/12/06 10:51:48;;;;;;;25.15;10.82;;;3.90;99.90;;;;;;5065785;28;20517;-62
2023/12/06 10:54:15;;;;;;;29.05;9.68;;;3.90;99.90;;;;;;5065505;28;20086;-62
2023/12/06 10:56:42;;;;;;;83.72;9.90;;;3.90;99.90;;;;;;5082458;28;20070;-62
2023/12/06 10:59:10;;;;;;;68.15;9.60;;;3.90;99.90;;;;;;5060214;28;20090;-62
2023/12/06 11:01:37;;;;;;;30.75;11.38;;;3.80;99.90;;;;;;5082853;28;20040;-61
2023/12/06 11:04:04;;;;;;;32.50;11.50;;;3.80;99.90;;;;;;5083468;28;20480;-62
2023/12/06 11:06:59;;;;;;;27.65;9.98;;;3.90;99.90;;;;;;5066195;28;20101;-62
2023/12/06 11:09:32;;;;;;;39.05;10.02;;;4.00;99.90;;;;;;5095111;28;20110;-63
2023/12/06 11:12:30;;;;;;;18.70;9.68;;;3.90;99.90;;;;;;5041977;28;20072;-62
2023/12/06 11:15:26;;;;;;;20.20;7.93;;;4.00;99.90;;;;;;5069498;28;20053;-63
2023/12/06 11:18:10;;;;;;;27.70;9.50;;;4.10;99.90;;;;;;5056210;28;20064;-63
2023/12/06 11:20:39;;;;;;;25.30;7.72;;;4.20;99.90;;;;;;5070322;28;20064;-62
2023/12/06 11:23:06;;;;;;;59.85;9.02;;;4.20;99.90;;;;;;5069762;28;20045;-62
2023/12/06 11:25:33;;;;;;;54.78;9.25;;;4.20;99.90;;;;;;5085792;28;20048;-62
2023/12/06 11:28:00;;;;;;;34.75;7.88;;;4.20;99.90;;;;;;5068356;28;20044;-62
2023/12/06 11:30:27;;;;;;;20.13;8.77;;;4.10;99.90;;;;;;5063766;28;20686;-62
2023/12/06 11:32:58;;;;;;;47.53;9.43;;;4.00;99.90;;;;;;5069350;28;20063;-63
2023/12/06 11:35:25;;;;;;;22.73;8.90;;;3.90;99.90;;;;;;5068687;28;20445;-63
2023/12/06 11:37:55;;;;;;;25.05;8.68;;;3.90;99.90;;;;;;5084195;28;20048;-62
2023/12/06 11:40:24;;;;;;;18.23;8.93;;;4.10;99.90;;;;;;5069278;28;20048;-63
2023/12/06 11:42:58;;;;;;;27.30;9.02;;;4.10;99.90;;;;;;5067041;28;20094;-63
2023/12/06 11:45:28;;;;;;;;;;;4.20;99.90;;;;;;5069887;28;20126;-63
2023/12/06 11:48:02;;;;;;;17.10;7.82;;;4.20;99.90;;;;;;5069002;28;19925;-63
2023/12/06 11:50:39;;;;;;;21.23;7.13;;;4.20;99.90;;;;;;5069993;28;20114;-62
2023/12/06 11:53:07;;;;;;;23.70;7.57;;;4.20;99.90;;;;;;5050172;28;20055;-62
2023/12/06 11:55:34;;;;;;;30.02;9.93;;;4.10;99.90;;;;;;5069351;28;20045;-63
2023/12/06 11:58:06;;;;;;;41.30;10.98;;;4.20;99.90;;;;;;5051458;28;20099;-62
2023/12/06 12:00:34;;;;;;;19.95;8.90;;;4.20;99.90;;;;;;5064764;28;20118;-63
2023/12/06 12:03:03;;;;;;;26.45;10.13;;;4.30;99.90;;;;;;5051180;28;20053;-67
2023/12/06 12:05:30;;;;;;;37.13;12.13;;;4.40;99.90;;;;;;5050568;28;20048;-63
2023/12/06 12:07:58;;;;;;;19.65;9.05;;;4.40;99.90;;;;;;5048614;28;20106;-62
2023/12/06 12:10:26;;;;;;;29.83;9.98;;;4.30;99.90;;;;;;5051944;28;20083;-62
2023/12/06 12:12:53;;;;;;;19.10;9.75;;;4.30;99.90;;;;;;5084773;28;20429;-62
2023/12/06 12:15:20;;;;;;;28.45;11.00;;;4.40;99.90;;;;;;5050836;28;20048;-62
2023/12/06 12:17:47;;;;;;;19.02;10.18;;;4.40;99.90;;;;;;5069462;28;20408;-62
2023/12/06 12:20:14;;;;;;;22.20;10.73;;;4.40;99.90;;;;;;5050886;28;20095;-63
2023/12/06 12:22:48;;;;;;;17.95;9.68;;;4.40;99.90;;;;;;5068498;28;20060;-63
2023/12/06 12:25:16;;;;;;;24.20;10.45;;;4.40;99.90;;;;;;5049941;28;20102;-63
2023/12/06 12:27:47;;;;;;;19.45;9.82;;;4.40;99.90;;;;;;5054776;28;20048;-62
2023/12/06 12:30:14;;;;;;;20.45;9.15;;;4.40;99.90;;;;;;5065991;28;20083;-63
2023/12/06 12:32:45;;;;;;;22.38;9.55;;;4.50;99.90;;;;;;5064681;28;20045;-63
2023/12/06 12:35:12;;;;;;;22.02;10.13;;;4.50;99.90;;;;;;5044055;28;20058;-62
2023/12/06 12:37:39;;;;;;;22.90;10.23;;;4.60;99.90;;;;;;5041752;28;20059;-65
2023/12/06 12:40:08;;;;;;;21.65;8.93;;;4.60;99.90;;;;;;5068123;28;20056;-63
2023/12/06 12:42:41;;;;;;;20.50;8.75;;;4.70;99.90;;;;;;5083536;28;20093;-62
2023/12/06 12:45:14;;;;;;;17.05;8.38;;;4.80;99.90;;;;;;5061453;28;20049;-62
2023/12/06 12:47:41;;;;;;;18.75;8.30;;;4.80;99.90;;;;;;5062398;28;20055;-63
2023/12/06 12:50:09;;;;;;;19.15;8.27;;;4.90;99.90;;;;;;5065247;28;20056;-62
2023/12/06 12:52:38;;;;;;;17.42;8.18;;;5.00;99.90;;;;;;5084002;28;20102;-62